Time;durP1;ratioP1;P1;durP2;ratioP2;P2;SDS_P1;SDS_P2;PMS_P1;PMS_P2;Temp;Humidity;BMP_temperature;BMP_pressure;BME280_temperature;BME280_humidity;BME280_pressure;Samples;Min_cycle;Max_cycle;Signal;HPM_P1;HPM_P2
2023/08/19 00:01:09;;;;;;;11.10;4.43;;;21.80;99.90;;;21.14;100.00;97522.16;5000048;28;20054;-73
2023/08/19 00:03:37;;;;;;;8.40;4.20;;;21.70;99.90;;;20.97;100.00;97523.63;4986614;28;20052;-73
2023/08/19 00:06:11;;;;;;;8.77;4.35;;;21.80;99.90;;;20.94;100.00;97524.72;4999863;28;20112;-74
2023/08/19 00:08:38;;;;;;;7.15;3.92;;;21.70;99.90;;;21.05;100.00;97524.63;5015730;28;20100;-73
2023/08/19 00:11:05;;;;;;;8.23;4.30;;;21.70;99.90;;;21.03;100.00;97525.75;5001909;28;20050;-73
2023/08/19 00:13:32;;;;;;;9.88;4.30;;;21.70;99.90;;;20.89;100.00;97519.84;4998934;28;20046;-73
2023/08/19 00:15:59;;;;;;;9.88;4.32;;;21.60;99.90;;;20.80;100.00;97525.03;5002258;28;20679;-73
2023/08/19 00:18:27;;;;;;;6.50;3.70;;;21.60;99.90;;;20.88;100.00;97527.88;4997254;28;20067;-74
2023/08/19 00:20:55;;;;;;;9.82;4.70;;;21.60;99.90;;;20.87;100.00;97523.56;5002765;28;20131;-74
2023/08/19 00:23:25;;;;;;;9.88;4.15;;;21.60;99.90;;;20.83;100.00;97524.81;4996665;28;20057;-74
2023/08/19 00:25:51;;;;;;;13.43;4.32;;;21.60;99.90;;;20.80;100.00;97525.03;5000149;28;20137;-72
2023/08/19 00:28:18;;;;;;;10.43;3.70;;;21.50;99.90;;;20.62;100.00;97523.00;5001105;28;20141;-73
2023/08/19 00:30:48;;;;;;;10.77;4.13;;;21.40;99.90;;;20.58;100.00;97529.50;5001080;28;20164;-73
2023/08/19 00:33:16;;;;;;;7.53;3.80;;;21.40;99.90;;;20.65;100.00;97527.19;5012194;28;20348;-73
2023/08/19 00:35:43;;;;;;;8.18;3.47;;;21.40;99.90;;;20.56;100.00;97526.16;5000084;28;21035;-72
2023/08/19 00:38:10;;;;;;;8.80;3.75;;;21.30;99.90;;;20.44;100.00;97528.00;4999254;28;20141;-73
2023/08/19 00:40:37;;;;;;;7.30;3.53;;;21.20;99.90;;;20.37;100.00;97523.38;4998696;28;20132;-73
2023/08/19 00:43:05;;;;;;;11.85;3.33;;;21.10;99.90;;;20.29;100.00;97528.44;4999414;28;20053;-73
2023/08/19 00:45:32;;;;;;;5.78;3.08;;;21.10;99.90;;;20.37;100.00;97529.47;5005028;28;20053;-74
2023/08/19 00:47:59;;;;;;;5.68;3.40;;;21.10;99.90;;;20.31;100.00;97524.72;5002426;28;20137;-73
2023/08/19 00:50:27;;;;;;;7.28;3.45;;;21.10;99.90;;;20.29;100.00;97529.28;4998882;28;20073;-73
2023/08/19 00:52:54;;;;;;;8.15;3.10;;;21.10;99.90;;;20.38;100.00;97525.03;4996783;28;20053;-74
2023/08/19 00:55:21;;;;;;;6.32;3.25;;;21.00;99.90;;;20.27;100.00;97520.66;5001456;28;20137;-73
2023/08/19 00:57:50;;;;;;;8.95;3.70;;;21.10;99.90;;;20.09;100.00;97525.63;5007159;28;20137;-72
2023/08/19 01:00:18;;;;;;;10.00;3.50;;;21.00;99.90;;;19.88;100.00;97525.59;5005667;28;20128;-74
2023/08/19 01:02:44;;;;;;;10.15;3.40;;;20.90;99.90;;;19.73;100.00;97537.38;5005490;28;20054;-72
2023/08/19 01:05:12;;;;;;;8.07;2.92;;;20.80;99.90;;;19.63;100.00;97540.72;5004666;28;20073;-72
2023/08/19 01:07:49;;;;;;;12.02;4.35;;;20.60;99.90;;;19.56;100.00;97544.78;5008353;28;20069;-73
2023/08/19 01:10:46;;;;;;;7.30;3.97;;;20.50;99.90;;;19.70;100.00;97553.44;5004186;28;20507;-72
2023/08/19 01:13:18;;;;;;;7.55;4.05;;;20.40;99.90;;;19.60;100.00;97545.41;5003127;28;20078;-72
2023/08/19 01:15:55;;;;;;;;;;;20.40;99.90;;;19.40;100.00;97550.44;5006226;28;20050;-73
2023/08/19 01:18:24;;;;;;;7.82;3.15;;;20.40;99.90;;;19.34;100.00;97539.56;5006157;28;19925;-73
2023/08/19 01:20:53;;;;;;;9.00;3.47;;;20.20;99.90;;;19.19;100.00;97544.25;5018087;28;20072;-72
2023/08/19 01:23:34;;;;;;;11.23;3.35;;;20.10;99.90;;;19.29;100.00;97553.06;5004357;28;20058;-73
2023/08/19 01:26:01;;;;;;;8.07;3.78;;;20.10;99.90;;;19.31;100.00;97548.53;5003102;28;20133;-73
2023/08/19 01:28:28;;;;;;;10.90;4.20;;;20.00;99.90;;;19.32;100.00;97558.13;5005847;28;20069;-73
2023/08/19 01:30:55;;;;;;;10.40;4.53;;;20.00;99.90;;;19.22;100.00;97560.63;5019140;28;20133;-73
2023/08/19 01:33:22;;;;;;;6.25;3.60;;;20.00;99.90;;;19.21;100.00;97558.94;5006296;28;20041;-73
2023/08/19 01:36:36;;;;;;;9.68;4.30;;;20.00;99.90;;;19.20;100.00;97565.19;5008206;28;20050;-72
2023/08/19 01:39:09;;;;;;;9.82;4.43;;;20.00;99.90;;;19.16;100.00;97574.25;5005463;28;20107;-72
2023/08/19 01:41:38;;;;;;;10.80;4.50;;;20.00;99.90;;;19.06;100.00;97578.56;5003247;28;20495;-72
2023/08/19 01:44:06;;;;;;;6.93;3.70;;;19.90;99.90;;;18.99;100.00;97572.91;5002665;28;20052;-73
2023/08/19 01:46:34;;;;;;;6.75;3.65;;;19.80;99.90;;;19.00;100.00;97565.91;5005944;28;20042;-73
2023/08/19 01:49:01;;;;;;;7.15;2.95;;;19.80;99.90;;;18.92;100.00;97563.00;5004259;28;20128;-73
2023/08/19 01:51:31;;;;;;;10.75;3.88;;;19.70;99.90;;;18.92;100.00;97563.00;4987520;28;20054;-73
2023/08/19 01:53:58;;;;;;;10.32;3.47;;;19.70;99.90;;;18.88;100.00;97565.00;4984913;28;20048;-73
2023/08/19 01:56:25;;;;;;;10.80;3.92;;;19.70;99.90;;;18.88;100.00;97564.19;4999267;28;20165;-73
2023/08/19 01:58:54;;;;;;;8.30;3.75;;;19.70;99.90;;;18.87;100.00;97563.34;5006256;28;20091;-72
2023/08/19 02:01:21;;;;;;;6.80;4.05;;;19.70;99.90;;;18.82;100.00;97568.13;5004528;28;20061;-73
2023/08/19 02:03:48;;;;;;;8.02;2.85;;;19.60;99.90;;;18.82;100.00;97570.75;5004625;28;20493;-73
2023/08/19 02:06:15;;;;;;;8.23;4.18;;;19.60;99.90;;;18.91;100.00;97566.59;4999369;28;20422;-73
2023/08/19 02:08:42;;;;;;;10.38;4.20;;;19.60;99.90;;;18.93;100.00;97578.69;5016582;28;20056;-72
2023/08/19 02:11:10;;;;;;;7.90;3.65;;;19.60;99.90;;;18.84;100.00;97570.63;5007041;28;20077;-72
2023/08/19 02:13:37;;;;;;;9.45;3.05;;;19.60;99.90;;;18.90;100.00;97576.25;5007632;28;20046;-73
2023/08/19 02:16:04;;;;;;;11.30;3.97;;;19.60;99.90;;;18.98;100.00;97575.69;5003372;28;20069;-73
2023/08/19 02:18:31;;;;;;;10.02;4.05;;;19.70;99.90;;;18.93;100.00;97573.41;5020135;28;20141;-73
2023/08/19 02:20:58;;;;;;;11.38;4.50;;;19.60;99.90;;;18.84;100.00;97568.00;5003604;28;20179;-73
2023/08/19 02:23:25;;;;;;;10.63;3.78;;;19.60;99.90;;;18.79;100.00;97573.59;5003211;28;20049;-73
2023/08/19 02:25:53;;;;;;;9.10;3.22;;;19.60;99.90;;;18.98;100.00;97578.31;5002209;28;20077;-73
2023/08/19 02:28:21;;;;;;;9.68;4.28;;;19.60;99.90;;;19.06;100.00;97573.28;5005162;28;20108;-73
2023/08/19 02:30:48;;;;;;;11.35;4.20;;;19.60;99.90;;;18.95;100.00;97568.88;5019430;28;20754;-72
2023/08/19 02:33:15;;;;;;;7.45;3.10;;;19.70;99.90;;;18.97;100.00;97574.00;4991413;28;20136;-73
2023/08/19 02:35:42;;;;;;;6.53;3.22;;;19.60;99.90;;;19.02;100.00;97571.84;5015448;28;20054;-73
2023/08/19 02:38:09;;;;;;;9.00;4.35;;;19.70;99.90;;;18.99;100.00;97570.28;5004204;28;20089;-73
2023/08/19 02:40:36;;;;;;;9.43;3.55;;;19.70;99.90;;;19.05;100.00;97574.25;4990604;28;20577;-72
2023/08/19 02:43:03;;;;;;;7.75;3.92;;;19.70;99.90;;;19.09;100.00;97564.31;5004025;28;20086;-74
2023/08/19 02:45:35;;;;;;;8.00;2.75;;;19.70;99.90;;;19.24;100.00;97549.97;5001609;28;20082;-71
2023/08/19 02:48:02;;;;;;;;;;;19.80;99.90;;;19.15;100.00;97554.16;5001036;28;20050;-73
2023/08/19 02:50:30;;;;;;;6.00;2.63;;;19.80;99.90;;;19.12;100.00;97550.94;5001037;28;20287;-73
2023/08/19 02:52:57;;;;;;;8.57;2.80;;;19.80;99.90;;;19.12;100.00;97548.31;5002881;28;20087;-73
2023/08/19 02:55:24;;;;;;;8.52;3.40;;;19.80;99.90;;;19.07;100.00;97550.44;5003611;28;20104;-73
2023/08/19 02:57:52;;;;;;;10.05;2.67;;;19.70;99.90;;;19.13;100.00;97555.25;5002012;28;20058;-74
2023/08/19 03:00:19;;;;;;;7.82;3.40;;;19.70;99.90;;;19.08;100.00;97552.13;5003042;28;20099;-73
2023/08/19 03:02:49;;;;;;;5.78;2.88;;;19.70;99.90;;;18.85;100.00;97561.81;5021622;28;20155;-73
2023/08/19 03:05:16;;;;;;;8.02;3.92;;;19.70;99.90;;;18.90;100.00;97565.75;5003935;28;20057;-73
2023/08/19 03:07:43;;;;;;;8.95;3.10;;;19.60;99.90;;;18.84;100.00;97568.00;5004785;28;20050;-73
2023/08/19 03:10:11;;;;;;;9.85;3.25;;;19.60;99.90;;;18.80;100.00;97568.25;5007130;28;20549;-73
2023/08/19 03:12:38;;;;;;;8.45;2.80;;;19.60;99.90;;;18.83;100.00;97569.78;5001895;28;20068;-74
2023/08/19 03:15:05;;;;;;;6.30;2.85;;;19.50;99.90;;;18.64;100.00;97564.25;5006355;28;20057;-73
2023/08/19 03:17:32;;;;;;;8.50;3.25;;;19.50;99.90;;;18.55;100.00;97563.97;4999963;28;20129;-73
2023/08/19 03:20:00;;;;;;;7.57;3.58;;;19.40;99.90;;;18.57;100.00;97569.13;5000527;28;20062;-73
2023/08/19 03:22:27;;;;;;;7.82;3.38;;;19.40;99.90;;;18.52;100.00;97579.97;4999913;28;20050;-73
2023/08/19 03:24:55;;;;;;;8.43;3.38;;;19.30;99.90;;;18.51;100.00;97577.47;5003816;28;20053;-73
2023/08/19 03:27:22;;;;;;;7.25;2.47;;;19.30;99.90;;;18.37;100.00;97581.13;5005167;28;20073;-73
2023/08/19 03:29:49;;;;;;;12.30;3.30;;;19.20;99.90;;;18.31;100.00;97577.13;5002177;28;20519;-71
2023/08/19 03:32:16;;;;;;;7.25;2.83;;;19.20;99.90;;;18.35;100.00;97575.97;5004639;28;20096;-73
2023/08/19 03:34:45;;;;;;;7.82;2.63;;;19.20;99.90;;;18.46;100.00;97576.97;5004782;28;20061;-73
2023/08/19 03:37:12;;;;;;;7.85;3.03;;;19.20;99.90;;;18.49;100.00;97580.19;5001331;28;20046;-73
2023/08/19 03:39:39;;;;;;;7.88;3.45;;;19.10;99.90;;;18.52;100.00;97572.09;5001490;28;20088;-72
2023/08/19 03:42:06;;;;;;;7.00;3.10;;;19.10;99.90;;;18.51;100.00;97572.19;4999763;28;20046;-73
2023/08/19 03:44:33;;;;;;;8.60;2.85;;;19.10;99.90;;;18.48;100.00;97570.66;5002433;28;20477;-73
2023/08/19 03:47:00;;;;;;;7.28;3.10;;;19.00;99.90;;;18.22;100.00;97572.56;5006171;28;20157;-73
2023/08/19 03:49:27;;;;;;;10.32;3.35;;;19.00;99.90;;;18.17;100.00;97582.59;4984236;28;20037;-73
2023/08/19 03:51:54;;;;;;;6.63;3.10;;;18.90;99.90;;;18.25;100.00;97576.78;5003174;28;20053;-74
2023/08/19 03:54:21;;;;;;;7.22;2.90;;;18.90;99.90;;;18.30;100.00;97578.09;4999278;28;20053;-73
2023/08/19 03:56:48;;;;;;;6.95;3.13;;;18.90;99.90;;;18.41;100.00;97579.13;4998855;28;20064;-73
2023/08/19 03:59:15;;;;;;;6.32;2.78;;;19.00;99.90;;;18.40;100.00;97575.63;4985942;28;20058;-72
2023/08/19 04:01:42;;;;;;;6.60;2.88;;;19.00;99.90;;;18.48;100.00;97569.81;4999870;28;20604;-73
2023/08/19 04:04:10;;;;;;;10.68;3.40;;;19.10;99.90;;;18.38;100.00;97561.75;5003670;28;20050;-73
2023/08/19 04:06:37;;;;;;;8.07;3.05;;;19.10;99.90;;;18.37;100.00;97573.22;5002669;28;20100;-73
2023/08/19 04:09:05;;;;;;;7.40;3.65;;;19.00;99.90;;;18.16;100.00;97571.25;4999181;28;20050;-73
2023/08/19 04:11:32;;;;;;;10.85;4.10;;;18.90;99.90;;;18.07;100.00;97577.19;5003442;28;20050;-73
2023/08/19 04:13:59;;;;;;;6.65;3.22;;;18.80;99.90;;;18.14;100.00;97581.03;5001633;28;20523;-73
2023/08/19 04:16:27;;;;;;;8.93;3.72;;;18.70;99.90;;;17.96;100.00;97583.19;5004733;28;20607;-73
2023/08/19 04:18:54;;;;;;;7.93;3.55;;;18.60;99.90;;;18.05;100.00;97586.13;5020094;28;20056;-74
2023/08/19 04:21:22;;;;;;;8.13;3.30;;;18.60;99.90;;;18.15;100.00;97585.34;5004677;28;20594;-73
2023/08/19 04:23:49;;;;;;;7.70;3.35;;;18.70;99.90;;;18.14;100.00;97588.91;4998565;28;20053;-74
2023/08/19 04:26:16;;;;;;;9.82;3.42;;;18.70;99.90;;;18.16;100.00;97584.38;5000678;28;20050;-73
2023/08/19 04:28:43;;;;;;;6.80;3.63;;;18.80;99.90;;;18.21;100.00;97583.22;5000706;28;20093;-73
2023/08/19 04:31:12;;;;;;;9.93;3.28;;;18.80;99.90;;;18.21;100.00;97578.78;5008672;28;20052;-73
2023/08/19 04:33:39;;;;;;;8.77;3.80;;;18.80;99.90;;;18.08;100.00;97578.84;5004020;28;20082;-73
2023/08/19 04:36:06;;;;;;;7.60;3.20;;;18.80;99.90;;;18.07;100.00;97582.44;5006737;28;20054;-73
2023/08/19 04:38:33;;;;;;;9.00;2.97;;;18.80;99.90;;;18.05;100.00;97578.25;5003878;28;20589;-73
2023/08/19 04:41:00;;;;;;;7.65;3.05;;;18.80;99.90;;;18.08;100.00;97578.00;5007254;28;20514;-73
2023/08/19 04:43:28;;;;;;;9.30;3.45;;;18.70;99.90;;;18.08;100.00;97573.59;5007734;28;20053;-73
2023/08/19 04:45:55;;;;;;;10.23;3.22;;;18.70;99.90;;;18.02;100.00;97581.06;5006765;28;20716;-73
2023/08/19 04:48:24;;;;;;;8.85;3.03;;;18.80;99.90;;;18.15;100.00;97580.09;5005381;28;20092;-73
2023/08/19 04:50:51;;;;;;;9.18;2.97;;;18.80;99.90;;;18.18;100.00;97584.28;5005417;28;20053;-73
2023/08/19 04:53:18;;;;;;;10.32;3.42;;;18.80;99.90;;;18.07;100.00;97581.59;5006028;28;20095;-73
2023/08/19 04:55:45;;;;;;;7.80;3.40;;;18.80;99.90;;;18.17;100.00;97585.22;5008475;28;20065;-73
2023/08/19 04:58:12;;;;;;;10.48;3.22;;;18.70;99.90;;;18.13;100.00;97586.38;5006878;28;20060;-73
2023/08/19 05:00:39;;;;;;;6.53;3.72;;;18.60;99.90;;;18.05;100.00;97586.13;5004224;28;20097;-73
2023/08/19 05:03:06;;;;;;;9.40;4.47;;;18.50;99.90;;;18.04;100.00;97595.78;5001577;28;20147;-73
2023/08/19 05:05:33;;;;;;;10.77;4.25;;;18.40;99.90;;;17.98;100.00;97604.94;5003494;28;20050;-73
2023/08/19 05:08:00;;;;;;;9.25;4.78;;;18.30;99.90;;;18.00;100.00;97594.34;5002156;28;20072;-74
2023/08/19 05:10:27;;;;;;;8.32;4.53;;;18.30;99.90;;;17.95;100.00;97602.53;5002698;28;20046;-73
2023/08/19 05:12:54;;;;;;;10.75;4.20;;;18.30;99.90;;;18.19;100.00;97606.97;5003966;28;20050;-72
2023/08/19 05:15:21;;;;;;;11.95;3.80;;;18.30;99.90;;;18.34;100.00;97605.00;5008828;28;20046;-73
2023/08/19 05:17:48;;;;;;;12.45;4.10;;;18.50;99.90;;;18.52;100.00;97605.41;5005620;28;20056;-73
2023/08/19 05:20:15;;;;;;;10.45;3.70;;;18.70;99.90;;;18.73;100.00;97597.72;5003013;28;20494;-73
2023/08/19 05:22:43;;;;;;;7.60;3.35;;;18.90;99.90;;;18.91;100.00;97592.91;5006509;28;20497;-73
2023/08/19 05:25:10;;;;;;;6.85;3.47;;;19.10;99.90;;;18.88;100.00;97606.25;5002692;28;20054;-73
2023/08/19 05:27:37;;;;;;;11.07;3.92;;;19.10;99.90;;;18.91;100.00;97609.50;5007479;28;20048;-73
2023/08/19 05:30:07;;;;;;;5.97;3.45;;;19.10;99.90;;;18.89;100.00;97619.31;5004167;28;20604;-72
2023/08/19 05:32:34;;;;;;;6.45;3.17;;;19.10;99.90;;;19.07;100.00;97618.84;5004827;28;20140;-73
2023/08/19 05:35:01;;;;;;;8.52;3.67;;;19.20;99.90;;;19.13;100.00;97619.22;5002200;28;20462;-73
2023/08/19 05:37:28;;;;;;;8.63;3.17;;;19.40;99.90;;;19.09;100.00;97614.31;5004036;28;20050;-73
2023/08/19 05:39:56;;;;;;;8.07;3.70;;;19.50;99.90;;;19.07;100.00;97616.22;5004807;28;20061;-73
2023/08/19 05:42:25;;;;;;;9.90;4.35;;;19.60;99.90;;;19.14;100.00;97615.66;5002343;28;20050;-74
2023/08/19 05:44:54;;;;;;;6.65;3.33;;;19.60;99.90;;;19.61;100.00;97621.66;5006754;28;20522;-73
2023/08/19 05:47:22;;;;;;;6.13;3.53;;;19.70;99.90;;;19.64;100.00;97618.75;5006800;28;20495;-73
2023/08/19 05:49:49;;;;;;;10.07;4.10;;;19.90;99.90;;;20.14;100.00;97610.44;5007460;28;20081;-73
2023/08/19 05:52:16;;;;;;;7.38;3.90;;;20.10;99.90;;;20.38;100.00;97591.78;5006653;28;20045;-73
2023/08/19 05:54:43;;;;;;;5.78;2.85;;;20.30;99.90;;;20.71;100.00;97595.25;5007676;28;20058;-73
2023/08/19 05:57:10;;;;;;;6.10;2.80;;;20.50;99.90;;;20.93;100.00;97580.25;5005630;28;20057;-73
2023/08/19 05:59:38;;;;;;;7.28;3.97;;;20.50;99.90;;;20.60;100.00;97572.41;5002867;28;20053;-73
2023/08/19 06:02:05;;;;;;;8.35;3.83;;;20.70;99.90;;;20.91;100.00;97566.34;5002371;28;20771;-73
2023/08/19 06:04:33;;;;;;;7.68;3.63;;;20.80;99.90;;;20.75;100.00;97569.44;5003298;28;20144;-73
2023/08/19 06:06:59;;;;;;;8.77;3.50;;;20.80;99.90;;;21.04;100.00;97580.16;5006042;28;20053;-73
2023/08/19 06:09:27;;;;;;;5.25;3.00;;;21.10;99.90;;;21.45;100.00;97570.53;5000936;28;20101;-73
2023/08/19 06:11:54;;;;;;;9.25;2.83;;;21.30;99.90;;;21.69;100.00;97560.44;5006984;28;20061;-73
2023/08/19 06:14:21;;;;;;;5.40;3.50;;;21.60;99.90;;;21.96;100.00;97553.66;5004979;28;20495;-73
2023/08/19 06:16:49;;;;;;;6.72;3.40;;;21.80;99.90;;;21.88;100.00;97546.44;5005200;28;20173;-73
2023/08/19 06:19:16;;;;;;;7.03;3.67;;;21.90;99.90;;;21.94;100.00;97550.34;4998111;28;20937;-72
2023/08/19 06:21:43;;;;;;;5.10;3.40;;;21.90;99.90;;;21.69;100.00;97552.53;5005047;28;20058;-73
2023/08/19 06:24:10;;;;;;;6.72;3.67;;;21.80;99.90;;;21.77;100.00;97556.28;5007081;28;20053;-73
2023/08/19 06:26:37;;;;;;;10.15;3.75;;;21.80;99.90;;;21.99;100.00;97553.41;5004563;28;20157;-75
2023/08/19 06:29:04;;;;;;;5.63;3.25;;;21.90;99.90;;;21.71;100.00;97568.22;5000760;28;20120;-75
2023/08/19 06:31:32;;;;;;;8.45;3.67;;;21.90;99.90;;;21.89;100.00;97578.97;5007686;28;20077;-73
2023/08/19 06:33:59;;;;;;;8.35;3.47;;;21.90;99.90;;;22.16;100.00;97574.84;4989927;28;20132;-73
2023/08/19 06:36:30;;;;;;;6.95;3.25;;;22.00;99.90;;;22.47;100.00;97573.78;5005086;28;20045;-73
2023/08/19 06:39:07;;;;;;;7.95;3.50;;;22.10;99.90;;;22.59;100.00;97578.91;5003013;28;20129;-73
2023/08/19 06:41:39;;;;;;;6.47;2.60;;;22.50;99.90;;;23.10;100.00;97583.00;5002090;28;20053;-73
2023/08/19 06:44:08;;;;;;;7.18;3.10;;;22.80;99.90;;;23.58;100.00;97572.25;5004213;28;20070;-73
2023/08/19 06:46:36;;;;;;;7.80;3.03;;;23.20;99.90;;;23.99;100.00;97574.53;5004871;28;20129;-73
2023/08/19 06:49:04;;;;;;;4.00;2.53;;;23.50;99.90;;;24.08;100.00;97570.97;5006277;28;20050;-72
2023/08/19 06:51:32;;;;;;;5.88;2.90;;;23.80;99.90;;;23.84;100.00;97576.03;5007335;28;20537;-75
2023/08/19 06:53:59;;;;;;;6.95;2.90;;;23.90;99.90;;;23.48;100.00;97573.25;5006680;28;20086;-73
2023/08/19 06:56:51;;;;;;;12.70;3.00;;;23.80;99.90;;;23.70;100.00;97574.69;4997211;28;20068;-73
2023/08/19 06:59:39;;;;;;;5.63;2.85;;;23.90;99.90;;;23.70;100.00;97583.47;5001430;28;20490;-73
2023/08/19 07:02:08;;;;;;;8.40;3.00;;;23.90;99.90;;;23.83;100.00;97584.97;5002972;28;20077;-72
2023/08/19 07:04:36;;;;;;;5.80;2.78;;;24.00;99.90;;;23.90;100.00;97581.59;5001991;28;20049;-73
2023/08/19 07:07:04;;;;;;;7.90;3.05;;;24.00;99.90;;;23.91;100.00;97585.06;4999467;28;20131;-73
2023/08/19 07:09:34;;;;;;;8.45;3.53;;;24.00;99.90;;;23.91;100.00;97590.38;5006437;28;20046;-72
2023/08/19 07:12:02;;;;;;;6.20;2.70;;;24.20;99.90;;;24.19;100.00;97593.78;5006008;28;20107;-72
2023/08/19 07:14:30;;;;;;;7.72;3.15;;;24.10;99.90;;;24.19;100.00;97596.44;5000038;28;20056;-73
2023/08/19 07:17:03;;;;;;;5.65;2.72;;;24.20;99.90;;;24.10;100.00;97595.53;4999038;28;20053;-73
2023/08/19 07:19:40;;;;;;;8.68;3.80;;;24.20;99.90;;;23.99;100.00;97599.25;5003537;28;20934;-73
2023/08/19 07:22:09;;;;;;;6.97;3.22;;;24.30;99.90;;;24.15;100.00;97603.88;5005905;28;20133;-73
2023/08/19 07:24:36;;;;;;;8.90;3.42;;;24.30;99.90;;;24.28;100.00;97597.38;4999654;28;20503;-72
2023/08/19 07:27:05;;;;;;;5.82;2.63;;;24.30;99.90;;;24.38;100.00;97591.00;5003423;28;20131;-73
2023/08/19 07:29:35;;;;;;;6.20;3.03;;;24.30;99.90;;;24.48;100.00;97598.91;4999495;28;20503;-73
2023/08/19 07:32:03;;;;;;;9.23;3.30;;;24.40;99.90;;;24.49;100.00;97602.41;4988238;28;20073;-72
2023/08/19 07:34:30;;;;;;;6.60;3.45;;;24.40;99.90;;;24.52;100.00;97602.94;5000563;28;20128;-73
2023/08/19 07:36:57;;;;;;;9.93;3.53;;;24.50;99.90;;;24.48;100.00;97604.22;5018400;28;20805;-72
2023/08/19 07:39:25;;;;;;;9.57;3.70;;;24.60;99.90;;;24.62;100.00;97600.19;5013464;28;20104;-73
2023/08/19 07:41:52;;;;;;;9.05;3.30;;;24.80;99.90;;;24.99;100.00;97589.34;5008154;28;20081;-73
2023/08/19 07:44:19;;;;;;;8.90;3.17;;;24.80;99.90;;;25.17;100.00;97591.13;4988362;28;20057;-73
2023/08/19 07:46:47;;;;;;;7.18;3.25;;;25.00;99.90;;;25.35;100.00;97591.09;5018239;28;20475;-73
2023/08/19 07:49:14;;;;;;;8.05;2.90;;;25.10;99.90;;;25.40;100.00;97594.09;5003838;28;20500;-73
2023/08/19 07:51:41;;;;;;;8.73;2.88;;;25.30;99.90;;;25.54;100.00;97592.66;5002090;28;20507;-73
2023/08/19 07:54:08;;;;;;;6.40;3.15;;;25.50;99.90;;;25.83;100.00;97586.97;5002434;28;20111;-74
2023/08/19 07:56:35;;;;;;;8.95;2.60;;;25.60;99.90;;;26.04;100.00;97590.03;4997862;28;20073;-72
2023/08/19 07:59:03;;;;;;;5.18;2.80;;;25.80;99.90;;;25.87;100.00;97594.50;5002597;28;20528;-73
2023/08/19 08:01:30;;;;;;;5.10;2.75;;;26.00;99.90;;;25.97;100.00;97590.88;5003778;28;20050;-73
2023/08/19 08:03:57;;;;;;;7.55;3.15;;;26.10;99.90;;;26.15;100.00;97598.72;4998291;28;20058;-74
2023/08/19 08:06:24;;;;;;;6.90;2.70;;;26.20;99.90;;;26.32;100.00;97596.91;5002260;28;20076;-73
2023/08/19 08:08:51;;;;;;;8.30;2.78;;;26.30;99.90;;;26.48;100.00;97589.78;4999676;28;20142;-74
2023/08/19 08:11:18;;;;;;;7.95;2.58;;;26.50;99.90;;;26.69;100.00;97593.81;5000174;28;20149;-73
2023/08/19 08:13:46;;;;;;;7.45;2.72;;;26.60;99.90;;;27.13;100.00;97588.09;5003534;28;20132;-72
2023/08/19 08:16:13;;;;;;;4.38;2.22;;;26.70;99.90;;;27.31;100.00;97595.91;4997537;28;20048;-73
2023/08/19 08:18:40;;;;;;;6.30;2.58;;;26.90;99.90;;;27.28;100.00;97591.78;5001767;28;20093;-74
2023/08/19 08:21:07;;;;;;;6.25;2.75;;;27.00;99.90;;;27.40;100.00;97604.72;5000288;28;20081;-73
2023/08/19 08:23:34;;;;;;;8.80;2.80;;;27.10;99.90;;;27.56;100.00;97596.69;5001882;28;20591;-73
2023/08/19 08:26:01;;;;;;;6.13;2.60;;;27.40;99.90;;;27.84;100.00;97598.91;4997575;28;20117;-74
2023/08/19 08:28:28;;;;;;;5.40;2.42;;;27.60;99.90;;;27.77;100.00;97596.09;4999157;28;20054;-73
2023/08/19 08:30:55;;;;;;;7.82;2.72;;;27.80;99.90;;;28.03;100.00;97590.50;5003465;28;20064;-71
2023/08/19 08:33:22;;;;;;;10.32;3.22;;;27.90;99.90;;;27.77;100.00;97600.59;4998076;28;20490;-73
2023/08/19 08:35:52;;;;;;;10.27;3.10;;;28.10;99.90;;;27.94;100.00;97604.88;5002701;28;20057;-74
2023/08/19 08:38:19;;;;;;;6.95;2.13;;;28.20;99.90;;;27.64;100.00;97619.81;5000274;28;20147;-74
2023/08/19 08:40:47;;;;;;;5.78;2.47;;;28.00;99.90;;;27.59;100.00;97614.16;5016848;28;20050;-73
2023/08/19 08:43:15;;;;;;;4.75;2.17;;;27.70;99.90;;;27.27;100.00;97621.25;4987420;28;20061;-72
2023/08/19 08:45:44;;;;;;;7.55;2.50;;;27.70;99.90;;;26.85;100.00;97616.94;5002336;28;20086;-73
2023/08/19 08:48:12;;;;;;;16.00;2.67;;;27.50;99.90;;;26.65;100.00;97614.59;5003482;28;20125;-73
2023/08/19 08:50:42;;;;;;;5.13;2.20;;;27.30;99.90;;;26.52;100.00;97611.56;4996759;28;20060;-74
2023/08/19 08:53:13;;;;;;;10.90;2.47;;;27.00;99.90;;;26.77;100.00;97614.28;5003697;28;20050;-73
2023/08/19 08:55:40;;;;;;;8.73;2.22;;;26.70;99.90;;;26.76;100.00;97613.44;5002185;28;20570;-72
2023/08/19 08:58:07;;;;;;;6.57;2.60;;;26.80;99.90;;;26.69;100.00;97615.94;5014568;28;20057;-74
2023/08/19 09:00:37;;;;;;;6.70;2.47;;;26.90;99.90;;;26.83;100.00;97621.59;4997645;28;20046;-73
2023/08/19 09:03:07;;;;;;;6.95;2.28;;;27.00;99.90;;;27.15;100.00;97620.75;5003050;28;20147;-73
2023/08/19 09:05:38;;;;;;;5.35;2.22;;;27.10;99.90;;;26.84;100.00;97625.91;5002876;28;20137;-75
2023/08/19 09:08:12;;;;;;;7.43;2.47;;;27.20;99.90;;;26.99;100.00;97634.09;4996084;28;20050;-73
2023/08/19 09:10:43;;;;;;;6.53;2.63;;;27.20;99.90;;;26.62;100.00;97628.25;5006251;28;20080;-73
2023/08/19 09:13:14;;;;;;;5.43;2.40;;;27.20;99.90;;;26.58;100.00;97640.22;5011504;28;20061;-73
2023/08/19 09:15:44;;;;;;;4.43;2.25;;;27.20;99.90;;;26.65;100.00;97640.41;5001229;28;20418;-73
2023/08/19 09:18:11;;;;;;;6.05;2.13;;;27.10;99.90;;;26.70;100.00;97636.22;5006194;28;20700;-73
2023/08/19 09:20:40;;;;;;;9.68;2.63;;;27.20;99.90;;;26.66;100.00;97636.72;5007330;28;21653;-72
2023/08/19 09:23:10;;;;;;;6.18;2.08;;;27.20;99.90;;;26.60;100.00;97651.56;5005771;28;20077;-72
2023/08/19 09:25:39;;;;;;;7.35;2.78;;;27.10;99.90;;;26.75;100.00;97643.72;5003263;28;20049;-73
2023/08/19 09:28:15;;;;;;;9.73;2.40;;;27.00;99.90;;;26.78;100.00;97648.75;5003488;28;20096;-73
2023/08/19 09:30:45;;;;;;;8.93;2.40;;;27.00;99.90;;;26.66;100.00;97664.22;5004874;28;20046;-73
2023/08/19 09:33:19;;;;;;;5.55;1.88;;;26.90;99.90;;;26.72;100.00;97656.56;5002033;28;20046;-73
2023/08/19 09:35:56;;;;;;;8.73;2.42;;;27.00;99.90;;;26.62;100.00;97662.88;5016176;28;20071;-72
2023/08/19 09:38:26;;;;;;;6.95;2.40;;;27.00;99.90;;;26.93;100.00;97659.53;5018711;28;20064;-72
2023/08/19 09:41:11;;;;;;;5.30;2.58;;;27.10;99.90;;;27.07;100.00;97650.91;5003642;28;20148;-72
2023/08/19 09:43:42;;;;;;;6.65;2.75;;;27.20;99.90;;;27.09;100.00;97664.84;5003823;28;20132;-73
2023/08/19 09:46:09;;;;;;;8.40;2.70;;;27.30;99.90;;;27.02;100.00;97665.69;5003218;28;20042;-73
2023/08/19 09:48:36;;;;;;;9.40;2.72;;;27.30;99.90;;;26.85;100.00;97675.53;5002672;28;20053;-72
2023/08/19 09:51:03;;;;;;;6.90;2.88;;;27.40;99.90;;;26.81;100.00;97672.38;4977711;28;20274;-74
2023/08/19 09:53:31;;;;;;;7.63;2.78;;;27.40;99.90;;;27.40;100.00;97666.03;4998227;28;20129;-73
2023/08/19 09:55:58;;;;;;;4.45;2.35;;;27.50;99.90;;;27.37;100.00;97671.69;5017857;28;20400;-74
2023/08/19 09:58:25;;;;;;;6.65;2.33;;;27.60;99.90;;;27.36;100.00;97675.38;5004432;28;20042;-74
2023/08/19 10:00:52;;;;;;;7.65;2.88;;;27.70;99.90;;;27.58;100.00;97676.50;4987153;28;20535;-74
2023/08/19 10:03:20;;;;;;;6.57;2.88;;;27.80;99.90;;;27.37;100.00;97691.19;5005941;28;20057;-73
2023/08/19 10:05:52;;;;;;;5.65;2.55;;;27.50;99.90;;;27.29;100.00;97681.38;5002741;28;20156;-73
2023/08/19 10:08:26;;;;;;;7.22;2.42;;;27.40;99.90;;;27.52;100.00;97681.50;5004680;28;20046;-74
2023/08/19 10:10:53;;;;;;;5.97;2.90;;;27.60;99.90;;;27.59;100.00;97694.16;4972764;28;20052;-73
2023/08/19 10:13:22;;;;;;;6.65;2.50;;;27.90;99.90;;;27.77;100.00;97691.28;5004685;28;20074;-73
2023/08/19 10:15:51;;;;;;;7.70;2.53;;;28.20;99.90;;;27.92;100.00;97702.94;5002847;28;20108;-74
2023/08/19 10:18:22;;;;;;;13.50;2.60;;;28.00;99.90;;;27.49;100.00;97711.16;5001709;28;20181;-73